Details From CYFB - Iqaluit
To CYVP - KUUJJUAQ
Flight Number -
Tags decoded
Created
Modified
Stats Distance 340 nm / 630 km
Max Altitude 0 ft / 0 m
Waypoints 2
Social Downloads 1
Likes 0
Share VATSIM

Download

Looking for another format? Having issues loading an existing format? Contact us
Advertisement - Login to hide

Notes

Requested: CYFB CYVP

Route

CYFB CYVP

ID Type Via Altitude Latitude Longitude Leg Dist Tot Dist Heading (true) Name
O CYFB APT - 0 ft / 0 m 63.75657˚ -68.55606˚ - 0 nm - Iqaluit
O CYVP APT - 0 ft / 0 m 58.09695˚ -68.42333˚ 339 nm 339 nm 179° / 179° KUUJJUAQ

Altitude Profile

Advertisement - Login to hide

Weather


0- 5 10 15 20 25 30 35+ Temperature / ° C

Clouds and Precipitation
Forecast for 2017-12-11 06:00 UTC. Updated an hour ago

Ground ~20,000 ft ~40,000 ft Winds

CYFB

Details ICAO CYFB (YFB)
Name Iqaluit
Region Canada
Timezone America/Iqaluit (UTC-5.0)
Stats Elevation 110 ft / 34 m (AMSL)
Location 63.756565° -68.556058°
Runways 1
Magnetic Variation 27.546° W

METAR

CYFB 110400Z 33010KT 12SM -SN FEW027 FEW078 SCT089 M17/M20 A2949 RMK SC1AC1AC1 SLP992

Decode

TAF

TAF TAF CYFB 102338Z 1100/1124 32010KT P6SM SCT020 BKN050 TEMPO 1100/1109 2SM -SN OVC020 FM110900 32010KT P6SM SCT020 BKN050 TEMPO 1109/1124 3SM -SN BKN020 OVC050 RMK NXT FCST BY 110600Z

Decode

Departure Runways

ID Width Length Bearing (true) Bearing (mag) Surface Threshold Offset Overrun Length
17 200 ft / 61 m 8,605 ft / 2,623 m 135.58° 163.13° Asphalt 0 ft / 0 m 210 ft / 64 m
35 200 ft / 61 m 8,605 ft / 2,623 m 315.62° 343.17° Asphalt 0 ft / 0 m 243 ft / 74 m

CYVP

Details ICAO CYVP (YVP)
Name KUUJJUAQ
Region Canada
Timezone America/Montreal (UTC-5.0)
Stats Elevation 129 ft / 39 m (AMSL)
Location 58.096945° -68.423333°
Runways 2
Magnetic Variation 22.676° W

METAR

CYVP 110400Z 24006KT 15SM -SN FEW040 BKN078 M20/M22 A2954 RMK SC2AS5 SLP008

Decode

TAF

TAF CYVP 102338Z 1100/1112 25006KT P6SM BKN040 TEMPO 1100/1112 5SM -SN BKN020 OVC040 RMK NXT FCST BY 110600Z

Decode

Destination Runways

ID Width Length Bearing (true) Bearing (mag) Surface Threshold Offset Overrun Length
07 150 ft / 46 m 6,002 ft / 1,829 m 43.43° 66.11° Asphalt 0 ft / 0 m 0 ft / 0 m
13 150 ft / 46 m 5,000 ft / 1,524 m 102.88° 125.56° Gravel 0 ft / 0 m 0 ft / 0 m
25 150 ft / 46 m 6,002 ft / 1,829 m 223.45° 246.13° Asphalt 0 ft / 0 m 0 ft / 0 m
31 150 ft / 46 m 5,000 ft / 1,524 m 282.90° 305.58° Gravel 0 ft / 0 m 0 ft / 0 m

Popular Alternatives